sensor_id;sensor_type;location;lat;lon;timestamp;P1;durP1;ratioP1;P2;durP2;ratioP2
9413;SDS011;4746;35.664;139.738;2022-07-17T00:00:42;4.80;;;1.77;;
9413;SDS011;4746;35.664;139.738;2022-07-17T00:03:14;6.75;;;1.90;;
9413;SDS011;4746;35.664;139.738;2022-07-17T00:05:44;6.47;;;2.08;;
9413;SDS011;4746;35.664;139.738;2022-07-17T00:08:12;6.20;;;1.73;;
9413;SDS011;4746;35.664;139.738;2022-07-17T00:10:40;6.13;;;1.70;;
9413;SDS011;4746;35.664;139.738;2022-07-17T00:13:09;4.03;;;1.60;;
9413;SDS011;4746;35.664;139.738;2022-07-17T00:15:37;3.25;;;1.50;;
9413;SDS011;4746;35.664;139.738;2022-07-17T00:18:05;6.00;;;1.40;;
9413;SDS011;4746;35.664;139.738;2022-07-17T00:20:33;3.03;;;1.60;;
9413;SDS011;4746;35.664;139.738;2022-07-17T00:23:01;4.78;;;1.48;;
9413;SDS011;4746;35.664;139.738;2022-07-17T00:25:28;4.88;;;1.23;;
9413;SDS011;4746;35.664;139.738;2022-07-17T00:27:57;3.35;;;1.63;;
9413;SDS011;4746;35.664;139.738;2022-07-17T00:30:25;6.00;;;1.92;;
9413;SDS011;4746;35.664;139.738;2022-07-17T00:32:53;4.82;;;1.73;;
9413;SDS011;4746;35.664;139.738;2022-07-17T00:35:20;5.50;;;1.65;;
9413;SDS011;4746;35.664;139.738;2022-07-17T00:37:48;8.95;;;2.22;;
9413;SDS011;4746;35.664;139.738;2022-07-17T00:40:18;4.95;;;1.85;;
9413;SDS011;4746;35.664;139.738;2022-07-17T00:42:49;4.30;;;1.67;;
9413;SDS011;4746;35.664;139.738;2022-07-17T00:45:19;5.47;;;1.88;;
9413;SDS011;4746;35.664;139.738;2022-07-17T00:47:52;6.60;;;1.85;;
9413;SDS011;4746;35.664;139.738;2022-07-17T00:50:33;4.05;;;1.48;;
9413;SDS011;4746;35.664;139.738;2022-07-17T00:53:06;4.43;;;1.58;;
9413;SDS011;4746;35.664;139.738;2022-07-17T00:55:36;3.78;;;1.23;;
9413;SDS011;4746;35.664;139.738;2022-07-17T00:58:06;5.28;;;1.73;;
9413;SDS011;4746;35.664;139.738;2022-07-17T01:00:36;6.45;;;1.90;;
9413;SDS011;4746;35.664;139.738;2022-07-17T01:03:04;6.22;;;1.90;;
9413;SDS011;4746;35.664;139.738;2022-07-17T01:05:34;2.65;;;1.30;;
9413;SDS011;4746;35.664;139.738;2022-07-17T01:08:02;5.53;;;1.70;;
9413;SDS011;4746;35.664;139.738;2022-07-17T01:10:30;4.07;;;1.60;;
9413;SDS011;4746;35.664;139.738;2022-07-17T01:12:57;3.10;;;1.50;;
9413;SDS011;4746;35.664;139.738;2022-07-17T01:15:25;4.95;;;1.60;;
9413;SDS011;4746;35.664;139.738;2022-07-17T01:17:54;3.63;;;1.42;;
9413;SDS011;4746;35.664;139.738;2022-07-17T01:20:22;1.98;;;1.48;;
9413;SDS011;4746;35.664;139.738;2022-07-17T01:22:50;5.15;;;1.60;;
9413;SDS011;4746;35.664;139.738;2022-07-17T01:25:21;2.63;;;1.48;;
9413;SDS011;4746;35.664;139.738;2022-07-17T01:27:49;3.42;;;2.00;;
9413;SDS011;4746;35.664;139.738;2022-07-17T01:30:17;6.97;;;1.77;;
9413;SDS011;4746;35.664;139.738;2022-07-17T01:32:45;2.53;;;1.40;;
9413;SDS011;4746;35.664;139.738;2022-07-17T01:35:13;6.28;;;2.00;;
9413;SDS011;4746;35.664;139.738;2022-07-17T01:37:42;4.80;;;2.13;;
9413;SDS011;4746;35.664;139.738;2022-07-17T01:40:12;5.00;;;2.40;;
9413;SDS011;4746;35.664;139.738;2022-07-17T01:42:42;7.90;;;3.47;;
9413;SDS011;4746;35.664;139.738;2022-07-17T01:45:13;5.50;;;3.10;;
9413;SDS011;4746;35.664;139.738;2022-07-17T01:47:43;6.03;;;3.45;;
9413;SDS011;4746;35.664;139.738;2022-07-17T01:50:11;7.55;;;3.50;;
9413;SDS011;4746;35.664;139.738;2022-07-17T01:52:41;6.15;;;3.30;;
9413;SDS011;4746;35.664;139.738;2022-07-17T01:55:10;7.00;;;4.20;;
9413;SDS011;4746;35.664;139.738;2022-07-17T01:57:40;9.98;;;5.68;;
9413;SDS011;4746;35.664;139.738;2022-07-17T02:00:11;7.90;;;4.10;;
9413;SDS011;4746;35.664;139.738;2022-07-17T02:02:43;11.05;;;4.40;;
9413;SDS011;4746;35.664;139.738;2022-07-17T02:05:11;8.80;;;5.32;;
9413;SDS011;4746;35.664;139.738;2022-07-17T02:07:39;7.63;;;5.10;;
9413;SDS011;4746;35.664;139.738;2022-07-17T02:10:08;6.50;;;4.25;;
9413;SDS011;4746;35.664;139.738;2022-07-17T02:12:36;8.85;;;5.10;;
9413;SDS011;4746;35.664;139.738;2022-07-17T02:15:04;8.02;;;5.03;;
9413;SDS011;4746;35.664;139.738;2022-07-17T02:17:32;9.77;;;5.88;;
9413;SDS011;4746;35.664;139.738;2022-07-17T02:20:00;9.35;;;6.45;;
9413;SDS011;4746;35.664;139.738;2022-07-17T02:22:27;9.73;;;7.13;;
9413;SDS011;4746;35.664;139.738;2022-07-17T02:24:55;11.95;;;6.60;;
9413;SDS011;4746;35.664;139.738;2022-07-17T02:27:23;6.13;;;4.47;;
9413;SDS011;4746;35.664;139.738;2022-07-17T02:29:50;6.85;;;4.15;;
9413;SDS011;4746;35.664;139.738;2022-07-17T02:32:18;8.40;;;4.40;;
9413;SDS011;4746;35.664;139.738;2022-07-17T02:34:45;7.93;;;4.93;;
9413;SDS011;4746;35.664;139.738;2022-07-17T02:37:13;5.80;;;4.60;;
9413;SDS011;4746;35.664;139.738;2022-07-17T02:39:40;6.15;;;3.60;;
9413;SDS011;4746;35.664;139.738;2022-07-17T02:42:20;7.72;;;4.20;;
9413;SDS011;4746;35.664;139.738;2022-07-17T02:44:54;5.40;;;4.03;;
9413;SDS011;4746;35.664;139.738;2022-07-17T02:49:55;7.90;;;6.80;;
9413;SDS011;4746;35.664;139.738;2022-07-17T02:52:23;6.65;;;3.95;;
9413;SDS011;4746;35.664;139.738;2022-07-17T02:54:51;7.88;;;3.05;;
9413;SDS011;4746;35.664;139.738;2022-07-17T02:57:18;7.07;;;2.90;;
9413;SDS011;4746;35.664;139.738;2022-07-17T02:59:46;6.93;;;2.67;;
9413;SDS011;4746;35.664;139.738;2022-07-17T03:02:14;6.00;;;2.00;;
9413;SDS011;4746;35.664;139.738;2022-07-17T03:04:41;4.97;;;1.83;;
9413;SDS011;4746;35.664;139.738;2022-07-17T03:07:09;7.75;;;2.15;;
9413;SDS011;4746;35.664;139.738;2022-07-17T03:09:37;4.28;;;1.65;;
9413;SDS011;4746;35.664;139.738;2022-07-17T03:12:04;6.65;;;2.10;;
9413;SDS011;4746;35.664;139.738;2022-07-17T03:14:32;3.13;;;1.67;;
9413;SDS011;4746;35.664;139.738;2022-07-17T03:16:59;4.63;;;2.05;;
9413;SDS011;4746;35.664;139.738;2022-07-17T03:19:27;4.55;;;1.63;;
9413;SDS011;4746;35.664;139.738;2022-07-17T03:21:55;3.55;;;1.83;;
9413;SDS011;4746;35.664;139.738;2022-07-17T03:24:22;4.15;;;2.10;;
9413;SDS011;4746;35.664;139.738;2022-07-17T03:26:50;4.88;;;2.42;;
9413;SDS011;4746;35.664;139.738;2022-07-17T03:29:17;4.47;;;1.83;;
9413;SDS011;4746;35.664;139.738;2022-07-17T03:31:45;3.53;;;1.65;;
9413;SDS011;4746;35.664;139.738;2022-07-17T03:34:13;2.47;;;1.80;;
9413;SDS011;4746;35.664;139.738;2022-07-17T03:36:41;3.90;;;3.50;;
9413;SDS011;4746;35.664;139.738;2022-07-17T03:39:09;5.03;;;4.25;;
9413;SDS011;4746;35.664;139.738;2022-07-17T03:41:37;4.30;;;4.00;;
9413;SDS011;4746;35.664;139.738;2022-07-17T03:44:04;4.30;;;3.50;;
9413;SDS011;4746;35.664;139.738;2022-07-17T03:46:32;4.15;;;2.97;;
9413;SDS011;4746;35.664;139.738;2022-07-17T03:48:59;4.03;;;3.45;;
9413;SDS011;4746;35.664;139.738;2022-07-17T03:51:27;4.55;;;3.03;;
9413;SDS011;4746;35.664;139.738;2022-07-17T03:53:55;4.40;;;2.38;;
9413;SDS011;4746;35.664;139.738;2022-07-17T03:56:22;4.70;;;2.80;;
9413;SDS011;4746;35.664;139.738;2022-07-17T03:58:50;3.40;;;2.15;;
9413;SDS011;4746;35.664;139.738;2022-07-17T04:01:17;5.07;;;2.00;;
9413;SDS011;4746;35.664;139.738;2022-07-17T04:03:45;5.40;;;2.42;;
9413;SDS011;4746;35.664;139.738;2022-07-17T04:06:12;3.60;;;2.17;;
9413;SDS011;4746;35.664;139.738;2022-07-17T04:08:40;6.25;;;1.98;;
9413;SDS011;4746;35.664;139.738;2022-07-17T04:11:08;3.60;;;1.77;;
9413;SDS011;4746;35.664;139.738;2022-07-17T04:13:35;3.42;;;1.98;;
9413;SDS011;4746;35.664;139.738;2022-07-17T04:16:03;3.70;;;2.00;;
9413;SDS011;4746;35.664;139.738;2022-07-17T04:18:34;5.78;;;2.25;;
9413;SDS011;4746;35.664;139.738;2022-07-17T04:21:04;3.25;;;1.65;;
9413;SDS011;4746;35.664;139.738;2022-07-17T04:23:34;4.78;;;2.08;;
9413;SDS011;4746;35.664;139.738;2022-07-17T04:26:03;3.92;;;2.10;;
9413;SDS011;4746;35.664;139.738;2022-07-17T04:28:33;3.75;;;1.70;;
9413;SDS011;4746;35.664;139.738;2022-07-17T04:31:01;4.00;;;1.92;;
9413;SDS011;4746;35.664;139.738;2022-07-17T04:33:29;6.03;;;1.90;;
9413;SDS011;4746;35.664;139.738;2022-07-17T04:35:57;5.30;;;1.83;;
9413;SDS011;4746;35.664;139.738;2022-07-17T04:38:24;3.20;;;1.63;;
9413;SDS011;4746;35.664;139.738;2022-07-17T04:40:52;4.10;;;1.70;;
9413;SDS011;4746;35.664;139.738;2022-07-17T04:43:19;3.60;;;1.70;;
9413;SDS011;4746;35.664;139.738;2022-07-17T04:45:47;3.50;;;1.77;;
9413;SDS011;4746;35.664;139.738;2022-07-17T04:48:14;5.03;;;2.10;;
9413;SDS011;4746;35.664;139.738;2022-07-17T04:50:44;2.03;;;1.80;;
9413;SDS011;4746;35.664;139.738;2022-07-17T04:53:12;5.20;;;2.30;;
9413;SDS011;4746;35.664;139.738;2022-07-17T04:55:39;3.45;;;2.20;;
9413;SDS011;4746;35.664;139.738;2022-07-17T04:58:06;3.22;;;1.95;;
9413;SDS011;4746;35.664;139.738;2022-07-17T05:00:34;2.15;;;1.63;;
9413;SDS011;4746;35.664;139.738;2022-07-17T05:03:02;4.72;;;2.10;;
9413;SDS011;4746;35.664;139.738;2022-07-17T05:05:29;3.05;;;1.52;;
9413;SDS011;4746;35.664;139.738;2022-07-17T05:07:57;5.07;;;2.08;;
9413;SDS011;4746;35.664;139.738;2022-07-17T05:10:24;3.22;;;1.55;;
9413;SDS011;4746;35.664;139.738;2022-07-17T05:12:52;4.13;;;2.08;;
9413;SDS011;4746;35.664;139.738;2022-07-17T05:15:19;6.07;;;2.40;;
9413;SDS011;4746;35.664;139.738;2022-07-17T05:17:47;7.68;;;2.63;;
9413;SDS011;4746;35.664;139.738;2022-07-17T05:20:14;3.45;;;2.08;;
9413;SDS011;4746;35.664;139.738;2022-07-17T05:22:42;4.50;;;2.17;;
9413;SDS011;4746;35.664;139.738;2022-07-17T05:25:10;2.90;;;2.08;;
9413;SDS011;4746;35.664;139.738;2022-07-17T05:27:37;4.05;;;2.38;;
9413;SDS011;4746;35.664;139.738;2022-07-17T05:30:05;6.95;;;2.50;;
9413;SDS011;4746;35.664;139.738;2022-07-17T05:32:33;5.50;;;2.13;;
9413;SDS011;4746;35.664;139.738;2022-07-17T05:35:00;6.15;;;2.80;;
9413;SDS011;4746;35.664;139.738;2022-07-17T05:37:28;6.57;;;3.00;;
9413;SDS011;4746;35.664;139.738;2022-07-17T05:39:56;5.20;;;2.63;;
9413;SDS011;4746;35.664;139.738;2022-07-17T05:42:24;5.68;;;3.08;;
9413;SDS011;4746;35.664;139.738;2022-07-17T05:44:51;5.40;;;3.65;;
9413;SDS011;4746;35.664;139.738;2022-07-17T05:47:19;7.60;;;4.07;;
9413;SDS011;4746;35.664;139.738;2022-07-17T05:49:46;6.35;;;3.45;;
9413;SDS011;4746;35.664;139.738;2022-07-17T05:52:14;5.70;;;3.45;;
9413;SDS011;4746;35.664;139.738;2022-07-17T05:54:41;7.38;;;3.38;;
9413;SDS011;4746;35.664;139.738;2022-07-17T05:57:09;7.68;;;3.60;;
9413;SDS011;4746;35.664;139.738;2022-07-17T05:59:36;5.63;;;3.75;;
9413;SDS011;4746;35.664;139.738;2022-07-17T06:02:04;7.95;;;3.80;;
9413;SDS011;4746;35.664;139.738;2022-07-17T06:04:32;5.93;;;3.80;;
9413;SDS011;4746;35.664;139.738;2022-07-17T06:07:00;5.63;;;3.42;;
9413;SDS011;4746;35.664;139.738;2022-07-17T06:09:27;5.93;;;4.28;;
9413;SDS011;4746;35.664;139.738;2022-07-17T06:11:55;7.75;;;4.35;;
9413;SDS011;4746;35.664;139.738;2022-07-17T06:14:22;7.32;;;4.13;;
9413;SDS011;4746;35.664;139.738;2022-07-17T06:16:50;5.00;;;3.58;;
9413;SDS011;4746;35.664;139.738;2022-07-17T06:19:18;9.13;;;4.78;;
9413;SDS011;4746;35.664;139.738;2022-07-17T06:21:45;7.10;;;4.85;;
9413;SDS011;4746;35.664;139.738;2022-07-17T06:24:13;8.63;;;4.55;;
9413;SDS011;4746;35.664;139.738;2022-07-17T06:26:40;8.32;;;5.70;;
9413;SDS011;4746;35.664;139.738;2022-07-17T06:29:08;7.05;;;5.75;;
9413;SDS011;4746;35.664;139.738;2022-07-17T06:31:35;7.20;;;5.90;;
9413;SDS011;4746;35.664;139.738;2022-07-17T06:34:03;12.20;;;6.18;;
9413;SDS011;4746;35.664;139.738;2022-07-17T06:36:30;10.48;;;6.05;;
9413;SDS011;4746;35.664;139.738;2022-07-17T06:38:58;12.50;;;6.32;;
9413;SDS011;4746;35.664;139.738;2022-07-17T06:41:25;7.78;;;5.65;;
9413;SDS011;4746;35.664;139.738;2022-07-17T06:43:53;11.73;;;5.95;;
9413;SDS011;4746;35.664;139.738;2022-07-17T06:46:20;10.07;;;6.18;;
9413;SDS011;4746;35.664;139.738;2022-07-17T06:48:48;12.73;;;7.07;;
9413;SDS011;4746;35.664;139.738;2022-07-17T06:51:18;12.57;;;7.35;;
9413;SDS011;4746;35.664;139.738;2022-07-17T06:53:45;12.38;;;7.75;;
9413;SDS011;4746;35.664;139.738;2022-07-17T06:56:13;10.73;;;6.68;;
9413;SDS011;4746;35.664;139.738;2022-07-17T06:58:41;10.77;;;7.72;;
9413;SDS011;4746;35.664;139.738;2022-07-17T07:01:08;13.40;;;7.20;;
9413;SDS011;4746;35.664;139.738;2022-07-17T07:03:36;12.85;;;7.75;;
9413;SDS011;4746;35.664;139.738;2022-07-17T07:06:03;13.40;;;7.85;;
9413;SDS011;4746;35.664;139.738;2022-07-17T07:08:32;15.90;;;7.45;;
9413;SDS011;4746;35.664;139.738;2022-07-17T07:11:01;12.60;;;8.27;;
9413;SDS011;4746;35.664;139.738;2022-07-17T07:13:29;16.77;;;8.57;;
9413;SDS011;4746;35.664;139.738;2022-07-17T07:15:56;15.27;;;8.73;;
9413;SDS011;4746;35.664;139.738;2022-07-17T07:18:25;12.80;;;7.50;;
9413;SDS011;4746;35.664;139.738;2022-07-17T07:20:52;14.23;;;8.45;;
9413;SDS011;4746;35.664;139.738;2022-07-17T07:23:20;14.80;;;8.82;;
9413;SDS011;4746;35.664;139.738;2022-07-17T07:25:47;14.57;;;8.90;;
9413;SDS011;4746;35.664;139.738;2022-07-17T07:28:15;14.13;;;9.18;;
9413;SDS011;4746;35.664;139.738;2022-07-17T07:30:42;12.43;;;8.65;;
9413;SDS011;4746;35.664;139.738;2022-07-17T07:33:10;15.30;;;8.60;;
9413;SDS011;4746;35.664;139.738;2022-07-17T07:35:38;15.05;;;9.13;;
9413;SDS011;4746;35.664;139.738;2022-07-17T07:38:05;15.48;;;8.85;;
9413;SDS011;4746;35.664;139.738;2022-07-17T07:40:33;13.57;;;8.88;;
9413;SDS011;4746;35.664;139.738;2022-07-17T07:43:01;12.77;;;8.65;;
9413;SDS011;4746;35.664;139.738;2022-07-17T07:45:29;14.80;;;9.15;;
9413;SDS011;4746;35.664;139.738;2022-07-17T07:47:57;11.50;;;8.20;;
9413;SDS011;4746;35.664;139.738;2022-07-17T07:50:25;13.57;;;8.50;;
9413;SDS011;4746;35.664;139.738;2022-07-17T07:52:54;10.10;;;7.75;;
9413;SDS011;4746;35.664;139.738;2022-07-17T07:55:22;11.88;;;7.97;;
9413;SDS011;4746;35.664;139.738;2022-07-17T07:58:00;13.63;;;7.15;;
9413;SDS011;4746;35.664;139.738;2022-07-17T08:00:36;11.40;;;7.50;;
9413;SDS011;4746;35.664;139.738;2022-07-17T08:03:06;9.65;;;7.25;;
9413;SDS011;4746;35.664;139.738;2022-07-17T08:05:34;13.95;;;7.57;;
9413;SDS011;4746;35.664;139.738;2022-07-17T08:08:03;12.18;;;7.65;;
9413;SDS011;4746;35.664;139.738;2022-07-17T08:10:31;13.32;;;8.15;;
9413;SDS011;4746;35.664;139.738;2022-07-17T08:12:59;10.65;;;7.50;;
9413;SDS011;4746;35.664;139.738;2022-07-17T08:15:27;8.65;;;7.75;;
9413;SDS011;4746;35.664;139.738;2022-07-17T08:17:55;11.45;;;8.25;;
9413;SDS011;4746;35.664;139.738;2022-07-17T08:20:23;11.68;;;7.60;;
9413;SDS011;4746;35.664;139.738;2022-07-17T08:22:51;16.90;;;9.02;;
9413;SDS011;4746;35.664;139.738;2022-07-17T08:25:19;12.60;;;8.20;;
9413;SDS011;4746;35.664;139.738;2022-07-17T08:27:47;13.10;;;8.85;;
9413;SDS011;4746;35.664;139.738;2022-07-17T08:30:14;13.77;;;8.80;;
9413;SDS011;4746;35.664;139.738;2022-07-17T08:32:42;13.45;;;8.30;;
9413;SDS011;4746;35.664;139.738;2022-07-17T08:35:10;13.90;;;8.48;;
9413;SDS011;4746;35.664;139.738;2022-07-17T08:37:44;13.90;;;8.63;;
9413;SDS011;4746;35.664;139.738;2022-07-17T08:40:18;12.15;;;7.97;;
9413;SDS011;4746;35.664;139.738;2022-07-17T08:42:52;13.13;;;9.13;;
9413;SDS011;4746;35.664;139.738;2022-07-17T08:45:21;10.25;;;8.18;;
9413;SDS011;4746;35.664;139.738;2022-07-17T08:47:51;11.02;;;7.82;;
9413;SDS011;4746;35.664;139.738;2022-07-17T08:50:30;11.88;;;8.15;;
9413;SDS011;4746;35.664;139.738;2022-07-17T08:53:02;10.57;;;8.32;;
9413;SDS011;4746;35.664;139.738;2022-07-17T08:55:30;10.30;;;8.25;;
9413;SDS011;4746;35.664;139.738;2022-07-17T08:57:58;11.73;;;8.07;;
9413;SDS011;4746;35.664;139.738;2022-07-17T09:00:26;12.93;;;8.57;;
9413;SDS011;4746;35.664;139.738;2022-07-17T09:02:59;9.95;;;8.02;;
9413;SDS011;4746;35.664;139.738;2022-07-17T09:05:29;14.07;;;8.73;;
9413;SDS011;4746;35.664;139.738;2022-07-17T09:08:07;13.48;;;8.75;;
9413;SDS011;4746;35.664;139.738;2022-07-17T09:10:43;12.68;;;9.73;;
9413;SDS011;4746;35.664;139.738;2022-07-17T09:13:30;13.65;;;9.13;;
9413;SDS011;4746;35.664;139.738;2022-07-17T09:16:08;13.20;;;10.00;;
9413;SDS011;4746;35.664;139.738;2022-07-17T09:18:44;15.45;;;10.50;;
9413;SDS011;4746;35.664;139.738;2022-07-17T09:21:24;16.42;;;10.90;;
9413;SDS011;4746;35.664;139.738;2022-07-17T09:24:05;16.10;;;10.95;;
9413;SDS011;4746;35.664;139.738;2022-07-17T09:26:34;12.70;;;10.02;;
9413;SDS011;4746;35.664;139.738;2022-07-17T09:29:10;16.85;;;11.55;;
9413;SDS011;4746;35.664;139.738;2022-07-17T09:31:38;17.88;;;11.30;;
9413;SDS011;4746;35.664;139.738;2022-07-17T09:34:15;12.40;;;10.30;;
9413;SDS011;4746;35.664;139.738;2022-07-17T09:36:44;13.80;;;10.73;;
9413;SDS011;4746;35.664;139.738;2022-07-17T09:39:33;14.93;;;11.60;;
9413;SDS011;4746;35.664;139.738;2022-07-17T09:42:02;14.20;;;11.40;;
9413;SDS011;4746;35.664;139.738;2022-07-17T09:44:30;13.68;;;11.00;;
9413;SDS011;4746;35.664;139.738;2022-07-17T09:46:57;14.80;;;11.30;;
9413;SDS011;4746;35.664;139.738;2022-07-17T09:49:28;16.10;;;12.00;;
9413;SDS011;4746;35.664;139.738;2022-07-17T09:51:55;18.88;;;11.70;;
9413;SDS011;4746;35.664;139.738;2022-07-17T09:54:26;15.63;;;11.77;;
9413;SDS011;4746;35.664;139.738;2022-07-17T09:56:57;14.27;;;11.27;;
9413;SDS011;4746;35.664;139.738;2022-07-17T09:59:27;13.38;;;12.02;;
9413;SDS011;4746;35.664;139.738;2022-07-17T10:02:01;13.95;;;12.43;;
9413;SDS011;4746;35.664;139.738;2022-07-17T10:04:28;15.80;;;10.95;;
9413;SDS011;4746;35.664;139.738;2022-07-17T10:06:56;14.60;;;12.18;;
9413;SDS011;4746;35.664;139.738;2022-07-17T10:09:25;12.07;;;10.60;;
9413;SDS011;4746;35.664;139.738;2022-07-17T10:11:53;15.73;;;11.07;;
9413;SDS011;4746;35.664;139.738;2022-07-17T10:14:22;13.90;;;11.02;;
9413;SDS011;4746;35.664;139.738;2022-07-17T10:16:50;11.27;;;9.98;;
9413;SDS011;4746;35.664;139.738;2022-07-17T10:19:18;14.82;;;10.35;;
9413;SDS011;4746;35.664;139.738;2022-07-17T10:21:55;11.57;;;9.35;;
9413;SDS011;4746;35.664;139.738;2022-07-17T10:24:25;10.90;;;9.38;;
9413;SDS011;4746;35.664;139.738;2022-07-17T10:26:55;11.25;;;9.90;;
9413;SDS011;4746;35.664;139.738;2022-07-17T10:32:23;13.73;;;9.15;;
9413;SDS011;4746;35.664;139.738;2022-07-17T10:34:57;12.88;;;9.13;;
9413;SDS011;4746;35.664;139.738;2022-07-17T10:37:32;12.70;;;9.35;;
9413;SDS011;4746;35.664;139.738;2022-07-17T10:40:05;11.13;;;9.60;;
9413;SDS011;4746;35.664;139.738;2022-07-17T10:45:13;12.43;;;8.93;;
9413;SDS011;4746;35.664;139.738;2022-07-17T10:50:17;10.15;;;8.93;;
9413;SDS011;4746;35.664;139.738;2022-07-17T10:52:56;10.75;;;8.85;;
9413;SDS011;4746;35.664;139.738;2022-07-17T10:55:39;12.60;;;9.00;;
9413;SDS011;4746;35.664;139.738;2022-07-17T10:58:16;11.73;;;9.07;;
9413;SDS011;4746;35.664;139.738;2022-07-17T11:01:09;13.40;;;8.40;;
9413;SDS011;4746;35.664;139.738;2022-07-17T11:08:58;10.93;;;8.40;;
9413;SDS011;4746;35.664;139.738;2022-07-17T11:11:40;12.27;;;9.32;;
9413;SDS011;4746;35.664;139.738;2022-07-17T11:14:20;11.50;;;8.57;;
9413;SDS011;4746;35.664;139.738;2022-07-17T11:16:53;13.27;;;9.38;;
9413;SDS011;4746;35.664;139.738;2022-07-17T11:19:31;12.65;;;9.82;;
9413;SDS011;4746;35.664;139.738;2022-07-17T11:22:01;12.50;;;9.40;;
9413;SDS011;4746;35.664;139.738;2022-07-17T11:24:38;12.57;;;10.07;;
9413;SDS011;4746;35.664;139.738;2022-07-17T11:29:52;14.40;;;9.73;;
9413;SDS011;4746;35.664;139.738;2022-07-17T11:32:23;10.48;;;9.38;;
9413;SDS011;4746;35.664;139.738;2022-07-17T11:35:18;13.05;;;8.90;;
9413;SDS011;4746;35.664;139.738;2022-07-17T11:37:48;14.27;;;10.05;;
9413;SDS011;4746;35.664;139.738;2022-07-17T11:40:16;12.25;;;9.75;;
9413;SDS011;4746;35.664;139.738;2022-07-17T11:42:44;12.70;;;10.50;;
9413;SDS011;4746;35.664;139.738;2022-07-17T11:45:12;18.70;;;10.20;;
9413;SDS011;4746;35.664;139.738;2022-07-17T11:47:39;14.00;;;9.15;;
9413;SDS011;4746;35.664;139.738;2022-07-17T11:50:12;14.45;;;10.10;;
9413;SDS011;4746;35.664;139.738;2022-07-17T11:52:47;11.57;;;9.48;;
9413;SDS011;4746;35.664;139.738;2022-07-17T11:55:16;14.10;;;10.05;;
9413;SDS011;4746;35.664;139.738;2022-07-17T11:57:44;9.65;;;8.68;;
9413;SDS011;4746;35.664;139.738;2022-07-17T12:00:17;11.75;;;9.75;;
9413;SDS011;4746;35.664;139.738;2022-07-17T12:02:57;13.45;;;9.52;;
9413;SDS011;4746;35.664;139.738;2022-07-17T12:05:31;13.70;;;8.88;;
9413;SDS011;4746;35.664;139.738;2022-07-17T12:08:01;11.85;;;9.48;;
9413;SDS011;4746;35.664;139.738;2022-07-17T12:10:34;12.38;;;8.88;;
9413;SDS011;4746;35.664;139.738;2022-07-17T12:13:05;12.38;;;9.18;;
9413;SDS011;4746;35.664;139.738;2022-07-17T12:15:54;9.52;;;8.50;;
9413;SDS011;4746;35.664;139.738;2022-07-17T12:18:27;11.18;;;8.98;;
9413;SDS011;4746;35.664;139.738;2022-07-17T12:21:01;10.18;;;8.98;;
9413;SDS011;4746;35.664;139.738;2022-07-17T12:23:40;10.50;;;9.43;;
9413;SDS011;4746;35.664;139.738;2022-07-17T12:26:15;12.13;;;9.00;;
9413;SDS011;4746;35.664;139.738;2022-07-17T12:28:45;13.70;;;9.07;;
9413;SDS011;4746;35.664;139.738;2022-07-17T12:31:13;12.15;;;10.30;;
9413;SDS011;4746;35.664;139.738;2022-07-17T12:33:42;10.60;;;9.38;;
9413;SDS011;4746;35.664;139.738;2022-07-17T12:36:10;10.35;;;9.20;;
9413;SDS011;4746;35.664;139.738;2022-07-17T12:38:38;11.85;;;9.23;;
9413;SDS011;4746;35.664;139.738;2022-07-17T12:41:07;11.02;;;9.55;;
9413;SDS011;4746;35.664;139.738;2022-07-17T12:43:35;8.52;;;6.70;;
9413;SDS011;4746;35.664;139.738;2022-07-17T12:46:02;10.40;;;7.00;;
9413;SDS011;4746;35.664;139.738;2022-07-17T12:48:30;9.52;;;6.82;;
9413;SDS011;4746;35.664;139.738;2022-07-17T12:50:58;8.60;;;7.18;;
9413;SDS011;4746;35.664;139.738;2022-07-17T12:53:25;10.32;;;6.78;;
9413;SDS011;4746;35.664;139.738;2022-07-17T12:55:53;8.13;;;6.90;;
9413;SDS011;4746;35.664;139.738;2022-07-17T12:58:20;8.70;;;6.88;;
9413;SDS011;4746;35.664;139.738;2022-07-17T13:00:48;9.85;;;7.15;;
9413;SDS011;4746;35.664;139.738;2022-07-17T13:03:15;9.10;;;7.63;;
9413;SDS011;4746;35.664;139.738;2022-07-17T13:05:43;8.82;;;7.22;;
9413;SDS011;4746;35.664;139.738;2022-07-17T13:08:10;8.38;;;6.72;;
9413;SDS011;4746;35.664;139.738;2022-07-17T13:10:38;9.20;;;7.43;;
9413;SDS011;4746;35.664;139.738;2022-07-17T13:13:06;9.05;;;6.93;;
9413;SDS011;4746;35.664;139.738;2022-07-17T13:15:33;10.32;;;6.43;;
9413;SDS011;4746;35.664;139.738;2022-07-17T13:18:01;6.88;;;6.10;;
9413;SDS011;4746;35.664;139.738;2022-07-17T13:20:28;8.38;;;7.43;;
9413;SDS011;4746;35.664;139.738;2022-07-17T13:22:56;9.82;;;7.97;;
9413;SDS011;4746;35.664;139.738;2022-07-17T13:25:23;6.90;;;6.22;;
9413;SDS011;4746;35.664;139.738;2022-07-17T13:27:51;7.60;;;6.63;;
9413;SDS011;4746;35.664;139.738;2022-07-17T13:30:18;6.20;;;5.45;;
9413;SDS011;4746;35.664;139.738;2022-07-17T13:32:46;4.65;;;3.22;;
9413;SDS011;4746;35.664;139.738;2022-07-17T13:35:13;4.75;;;2.80;;
9413;SDS011;4746;35.664;139.738;2022-07-17T13:37:43;2.33;;;2.13;;
9413;SDS011;4746;35.664;139.738;2022-07-17T13:40:11;2.25;;;2.05;;
9413;SDS011;4746;35.664;139.738;2022-07-17T13:42:39;3.03;;;2.05;;
9413;SDS011;4746;35.664;139.738;2022-07-17T13:45:06;2.03;;;1.92;;
9413;SDS011;4746;35.664;139.738;2022-07-17T13:47:34;1.60;;;1.38;;
9413;SDS011;4746;35.664;139.738;2022-07-17T13:50:03;1.35;;;1.25;;
9413;SDS011;4746;35.664;139.738;2022-07-17T13:52:32;1.50;;;1.40;;
9413;SDS011;4746;35.664;139.738;2022-07-17T13:55:00;1.40;;;1.30;;
9413;SDS011;4746;35.664;139.738;2022-07-17T13:57:29;1.58;;;1.48;;
9413;SDS011;4746;35.664;139.738;2022-07-17T13:59:57;3.55;;;1.73;;
9413;SDS011;4746;35.664;139.738;2022-07-17T14:02:26;1.80;;;1.42;;
9413;SDS011;4746;35.664;139.738;2022-07-17T14:04:55;2.58;;;2.10;;
9413;SDS011;4746;35.664;139.738;2022-07-17T14:07:22;2.08;;;1.88;;
9413;SDS011;4746;35.664;139.738;2022-07-17T14:09:50;2.10;;;2.00;;
9413;SDS011;4746;35.664;139.738;2022-07-17T14:12:17;1.85;;;1.70;;
9413;SDS011;4746;35.664;139.738;2022-07-17T14:14:45;1.90;;;1.77;;
9413;SDS011;4746;35.664;139.738;2022-07-17T14:17:12;2.33;;;2.08;;
9413;SDS011;4746;35.664;139.738;2022-07-17T14:19:46;1.45;;;1.35;;
9413;SDS011;4746;35.664;139.738;2022-07-17T14:22:13;2.28;;;1.92;;
9413;SDS011;4746;35.664;139.738;2022-07-17T14:24:41;1.83;;;1.73;;
9413;SDS011;4746;35.664;139.738;2022-07-17T14:27:08;2.58;;;2.10;;
9413;SDS011;4746;35.664;139.738;2022-07-17T14:29:36;2.20;;;2.10;;
9413;SDS011;4746;35.664;139.738;2022-07-17T14:32:03;2.50;;;2.30;;
9413;SDS011;4746;35.664;139.738;2022-07-17T14:34:32;2.30;;;2.20;;
9413;SDS011;4746;35.664;139.738;2022-07-17T14:36:59;2.97;;;1.88;;
9413;SDS011;4746;35.664;139.738;2022-07-17T14:39:28;2.80;;;2.05;;
9413;SDS011;4746;35.664;139.738;2022-07-17T14:41:57;2.38;;;2.00;;
9413;SDS011;4746;35.664;139.738;2022-07-17T14:44:24;1.98;;;1.83;;
9413;SDS011;4746;35.664;139.738;2022-07-17T14:46:53;2.53;;;2.33;;
9413;SDS011;4746;35.664;139.738;2022-07-17T14:49:20;1.83;;;1.73;;
9413;SDS011;4746;35.664;139.738;2022-07-17T14:51:48;1.70;;;1.60;;
9413;SDS011;4746;35.664;139.738;2022-07-17T14:54:15;2.80;;;1.88;;
9413;SDS011;4746;35.664;139.738;2022-07-17T14:56:43;2.13;;;1.92;;
9413;SDS011;4746;35.664;139.738;2022-07-17T14:59:10;2.50;;;1.90;;
9413;SDS011;4746;35.664;139.738;2022-07-17T15:01:38;2.95;;;2.00;;
9413;SDS011;4746;35.664;139.738;2022-07-17T15:04:05;2.70;;;2.10;;
9413;SDS011;4746;35.664;139.738;2022-07-17T15:06:33;2.85;;;2.20;;
9413;SDS011;4746;35.664;139.738;2022-07-17T15:09:03;3.20;;;2.05;;
9413;SDS011;4746;35.664;139.738;2022-07-17T15:11:30;2.17;;;1.98;;